This is the latest recevied weather packets stored in our database for station/object KE8KMM. If no packets are shown the sender has not sent any weather packets the latest 10 day(s).
| Time | Temp. | Humidity | Pressure | Rain* | Wind** | Luminosity | Snow |
|---|---|---|---|---|---|---|---|
| 1778001072 | 23.33° C | 58% | 1006.7 hPa | 0 mm | - | 716 W/m² | - |
| 1778000769 | 22.78° C | 61% | 1006.7 hPa | 0 mm | - | 710 W/m² | - |
| 1778000466 | 22.78° C | 59% | 1006.9 hPa | 0 mm | - | 238 W/m² | - |
| 1778000161 | 22.78° C | 59% | 1006.9 hPa | 0 mm | - | 755 W/m² | - |
| 1777999857 | 22.78° C | 60% | 1007.1 hPa | 0 mm | - | 704 W/m² | - |
| 1777999553 | 22.78° C | 59% | 1007.4 hPa | 0 mm | - | 332 W/m² | - |
| 1777999251 | 23.33° C | 61% | 1007.2 hPa | 0 mm | - | 647 W/m² | - |
| 1777998949 | 22.78° C | 60% | 1007.4 hPa | 0 mm | - | 717 W/m² | - |
| 1777998645 | 22.78° C | 62% | 1007.1 hPa | 0 mm | - | 652 W/m² | - |
| 1777998338 | 22.22° C | 60% | 1007.4 hPa | 0 mm | - | 750 W/m² | - |
| 1777998036 | 22.22° C | 60% | 1007.1 hPa | 0 mm | - | 320 W/m² | - |
| 1777997732 | 21.67° C | 61% | 1007.5 hPa | 0 mm | - | 631 W/m² | - |
| 1777997429 | 22.22° C | 63% | 1007.2 hPa | 0 mm | - | 681 W/m² | - |
| 1777997127 | 22.22° C | 63% | 1006.8 hPa | 0 mm | - | 686 W/m² | - |
| 1777996824 | 21.67° C | 63% | 1007.1 hPa | 0 mm | - | 645 W/m² | - |
| 1777996521 | 21.11° C | 65% | 1007.2 hPa | 0 mm | - | 752 W/m² | - |
| 1777996217 | 21.11° C | 64% | 1006.9 hPa | 0 mm | - | 459 W/m² | - |
| 1777995914 | 20.56° C | 63% | 1007.1 hPa | 0 mm | - | 531 W/m² | - |
| 1777995609 | 20.56° C | 67% | 1006.9 hPa | 0 mm | - | 583 W/m² | - |
| 1777995308 | 20° C | 67% | 1007.2 hPa | 0 mm | - | 503 W/m² | - |
| 1777995004 | 20° C | 66% | 1007.3 hPa | 0 mm | - | 303 W/m² | - |
| 1777994701 | 20.56° C | 67% | 1007.2 hPa | 0 mm | - | 284 W/m² | - |
| 1777994396 | 20.56° C | 67% | 1006.9 hPa | 0 mm | - | 347 W/m² | - |
| 1777994091 | 20° C | 68% | 1006.8 hPa | 0 mm | - | 252 W/m² | - |
| 1777993789 | 20° C | 69% | 1007.1 hPa | 0 mm | - | 279 W/m² | - |
* Rain latest hour (hover to see other rain measurements)
** Current wind speed in m/s (hover to see current wind gust speed)